sensor_id;sensor_type;location;lat;lon;timestamp;temperature;humidity
32965;DHT22;19317;48.226;11.686;2023-05-03T00:03:44;8.30;99.90
32965;DHT22;19317;48.226;11.686;2023-05-03T00:08:34;8.10;99.90
32965;DHT22;19317;48.226;11.686;2023-05-03T00:13:24;8.30;99.90
32965;DHT22;19317;48.226;11.686;2023-05-03T00:18:15;8.30;99.90
32965;DHT22;19317;48.226;11.686;2023-05-03T00:23:05;8.10;99.90
32965;DHT22;19317;48.226;11.686;2023-05-03T00:27:56;7.90;99.90
32965;DHT22;19317;48.226;11.686;2023-05-03T00:32:46;8.10;99.90
32965;DHT22;19317;48.226;11.686;2023-05-03T00:37:37;7.80;99.90
32965;DHT22;19317;48.226;11.686;2023-05-03T00:42:27;7.90;99.90
32965;DHT22;19317;48.226;11.686;2023-05-03T00:47:18;8.10;99.90
32965;DHT22;19317;48.226;11.686;2023-05-03T00:52:08;8.20;99.90
32965;DHT22;19317;48.226;11.686;2023-05-03T00:56:59;8.20;99.90
32965;DHT22;19317;48.226;11.686;2023-05-03T01:01:51;8.20;99.90
32965;DHT22;19317;48.226;11.686;2023-05-03T01:11:59;7.70;99.90
32965;DHT22;19317;48.226;11.686;2023-05-03T01:16:59;7.30;99.90
32965;DHT22;19317;48.226;11.686;2023-05-03T01:21:58;7.70;99.90
32965;DHT22;19317;48.226;11.686;2023-05-03T01:26:52;7.90;99.90
32965;DHT22;19317;48.226;11.686;2023-05-03T01:31:52;8.10;99.90
32965;DHT22;19317;48.226;11.686;2023-05-03T01:36:45;8.10;99.90
32965;DHT22;19317;48.226;11.686;2023-05-03T01:41:37;7.60;99.90
32965;DHT22;19317;48.226;11.686;2023-05-03T01:46:29;7.90;99.90
32965;DHT22;19317;48.226;11.686;2023-05-03T01:51:20;7.90;99.90
32965;DHT22;19317;48.226;11.686;2023-05-03T01:56:10;8.00;99.90
32965;DHT22;19317;48.226;11.686;2023-05-03T02:01:03;8.00;99.90
32965;DHT22;19317;48.226;11.686;2023-05-03T02:05:53;7.90;99.90
32965;DHT22;19317;48.226;11.686;2023-05-03T02:10:44;7.80;99.90
32965;DHT22;19317;48.226;11.686;2023-05-03T02:15:34;7.80;99.90
32965;DHT22;19317;48.226;11.686;2023-05-03T02:20:25;7.80;99.90
32965;DHT22;19317;48.226;11.686;2023-05-03T02:25:15;7.50;99.90
32965;DHT22;19317;48.226;11.686;2023-05-03T02:30:06;7.40;99.90
32965;DHT22;19317;48.226;11.686;2023-05-03T02:34:57;7.60;99.90
32965;DHT22;19317;48.226;11.686;2023-05-03T02:39:47;8.00;99.90
32965;DHT22;19317;48.226;11.686;2023-05-03T02:44:37;8.10;99.90
32965;DHT22;19317;48.226;11.686;2023-05-03T02:49:28;7.80;99.90
32965;DHT22;19317;48.226;11.686;2023-05-03T02:54:18;8.00;99.90
32965;DHT22;19317;48.226;11.686;2023-05-03T02:59:09;8.10;99.90
32965;DHT22;19317;48.226;11.686;2023-05-03T03:03:59;7.90;99.90
32965;DHT22;19317;48.226;11.686;2023-05-03T03:08:50;8.00;99.90
32965;DHT22;19317;48.226;11.686;2023-05-03T03:13:40;7.80;99.90
32965;DHT22;19317;48.226;11.686;2023-05-03T03:18:31;7.60;99.90
32965;DHT22;19317;48.226;11.686;2023-05-03T03:23:21;7.40;99.90
32965;DHT22;19317;48.226;11.686;2023-05-03T03:28:12;7.00;99.90
32965;DHT22;19317;48.226;11.686;2023-05-03T03:33:02;7.00;99.90
32965;DHT22;19317;48.226;11.686;2023-05-03T03:37:53;7.10;99.90
32965;DHT22;19317;48.226;11.686;2023-05-03T03:42:43;8.10;99.90
32965;DHT22;19317;48.226;11.686;2023-05-03T03:47:34;7.30;99.90
32965;DHT22;19317;48.226;11.686;2023-05-03T03:52:24;7.50;99.90
32965;DHT22;19317;48.226;11.686;2023-05-03T03:57:14;7.20;99.90
32965;DHT22;19317;48.226;11.686;2023-05-03T04:02:05;7.10;99.90
32965;DHT22;19317;48.226;11.686;2023-05-03T04:06:55;7.10;99.90
32965;DHT22;19317;48.226;11.686;2023-05-03T04:11:46;6.80;99.90
32965;DHT22;19317;48.226;11.686;2023-05-03T04:16:36;7.20;99.90
32965;DHT22;19317;48.226;11.686;2023-05-03T04:21:27;7.10;99.90
32965;DHT22;19317;48.226;11.686;2023-05-03T04:26:17;7.10;99.90
32965;DHT22;19317;48.226;11.686;2023-05-03T04:31:09;6.60;99.90
32965;DHT22;19317;48.226;11.686;2023-05-03T04:35:59;6.60;99.90
32965;DHT22;19317;48.226;11.686;2023-05-03T04:40:49;6.70;99.90
32965;DHT22;19317;48.226;11.686;2023-05-03T04:45:40;6.80;99.90
32965;DHT22;19317;48.226;11.686;2023-05-03T04:50:31;7.10;99.90
32965;DHT22;19317;48.226;11.686;2023-05-03T04:55:22;7.20;99.90
32965;DHT22;19317;48.226;11.686;2023-05-03T05:00:13;7.10;99.90
32965;DHT22;19317;48.226;11.686;2023-05-03T05:05:04;7.10;99.90
32965;DHT22;19317;48.226;11.686;2023-05-03T05:09:54;7.20;99.90
32965;DHT22;19317;48.226;11.686;2023-05-03T05:14:45;7.20;99.90
32965;DHT22;19317;48.226;11.686;2023-05-03T05:19:35;7.30;99.90
32965;DHT22;19317;48.226;11.686;2023-05-03T05:24:26;7.20;99.90
32965;DHT22;19317;48.226;11.686;2023-05-03T05:29:16;7.40;99.90
32965;DHT22;19317;48.226;11.686;2023-05-03T05:34:07;7.40;99.90
32965;DHT22;19317;48.226;11.686;2023-05-03T05:38:57;7.20;99.90
32965;DHT22;19317;48.226;11.686;2023-05-03T05:43:48;7.60;99.90
32965;DHT22;19317;48.226;11.686;2023-05-03T05:48:39;7.80;99.90
32965;DHT22;19317;48.226;11.686;2023-05-03T05:53:30;7.90;99.90
32965;DHT22;19317;48.226;11.686;2023-05-03T05:58:20;7.90;99.90
32965;DHT22;19317;48.226;11.686;2023-05-03T06:03:11;7.80;99.90
32965;DHT22;19317;48.226;11.686;2023-05-03T06:08:01;7.90;99.90
32965;DHT22;19317;48.226;11.686;2023-05-03T06:12:51;8.30;99.90
32965;DHT22;19317;48.226;11.686;2023-05-03T06:17:42;8.10;99.90
32965;DHT22;19317;48.226;11.686;2023-05-03T06:22:33;8.20;99.90
32965;DHT22;19317;48.226;11.686;2023-05-03T06:27:23;8.40;99.90
32965;DHT22;19317;48.226;11.686;2023-05-03T06:32:14;8.40;99.90
32965;DHT22;19317;48.226;11.686;2023-05-03T06:37:04;8.50;99.90
32965;DHT22;19317;48.226;11.686;2023-05-03T06:41:55;8.50;99.90
32965;DHT22;19317;48.226;11.686;2023-05-03T06:46:45;8.50;99.90
32965;DHT22;19317;48.226;11.686;2023-05-03T06:51:36;8.60;99.90
32965;DHT22;19317;48.226;11.686;2023-05-03T06:56:26;8.60;99.90
32965;DHT22;19317;48.226;11.686;2023-05-03T07:01:17;8.60;99.90
32965;DHT22;19317;48.226;11.686;2023-05-03T07:06:07;8.60;99.90
32965;DHT22;19317;48.226;11.686;2023-05-03T07:10:58;8.70;99.90
32965;DHT22;19317;48.226;11.686;2023-05-03T07:15:48;8.70;99.90
32965;DHT22;19317;48.226;11.686;2023-05-03T07:20:39;8.80;99.90
32965;DHT22;19317;48.226;11.686;2023-05-03T07:25:29;8.90;99.90
32965;DHT22;19317;48.226;11.686;2023-05-03T07:30:20;8.90;99.90
32965;DHT22;19317;48.226;11.686;2023-05-03T07:35:11;9.00;99.90
32965;DHT22;19317;48.226;11.686;2023-05-03T07:40:01;9.10;99.90
32965;DHT22;19317;48.226;11.686;2023-05-03T07:44:52;9.10;99.90
32965;DHT22;19317;48.226;11.686;2023-05-03T07:49:42;9.30;99.90
32965;DHT22;19317;48.226;11.686;2023-05-03T07:54:33;9.50;99.90
32965;DHT22;19317;48.226;11.686;2023-05-03T07:59:23;8.90;99.90
32965;DHT22;19317;48.226;11.686;2023-05-03T08:04:14;9.70;99.90
32965;DHT22;19317;48.226;11.686;2023-05-03T08:09:04;9.80;99.90
32965;DHT22;19317;48.226;11.686;2023-05-03T08:13:55;10.00;99.90
32965;DHT22;19317;48.226;11.686;2023-05-03T08:18:45;10.00;99.90
32965;DHT22;19317;48.226;11.686;2023-05-03T08:23:36;10.10;99.90
32965;DHT22;19317;48.226;11.686;2023-05-03T08:28:26;10.10;99.90
32965;DHT22;19317;48.226;11.686;2023-05-03T08:33:17;10.30;99.90
32965;DHT22;19317;48.226;11.686;2023-05-03T08:38:07;10.30;99.90
32965;DHT22;19317;48.226;11.686;2023-05-03T08:42:58;10.10;99.90
32965;DHT22;19317;48.226;11.686;2023-05-03T08:47:55;10.00;99.90
32965;DHT22;19317;48.226;11.686;2023-05-03T08:52:46;10.00;99.90
32965;DHT22;19317;48.226;11.686;2023-05-03T08:57:36;10.00;99.90
32965;DHT22;19317;48.226;11.686;2023-05-03T09:02:27;10.10;99.90
32965;DHT22;19317;48.226;11.686;2023-05-03T09:07:18;10.00;99.90
32965;DHT22;19317;48.226;11.686;2023-05-03T09:12:08;10.10;99.90
32965;DHT22;19317;48.226;11.686;2023-05-03T09:17:16;10.20;99.90
32965;DHT22;19317;48.226;11.686;2023-05-03T09:22:07;10.30;99.90
32965;DHT22;19317;48.226;11.686;2023-05-03T09:26:57;10.30;99.90
32965;DHT22;19317;48.226;11.686;2023-05-03T09:32:03;10.40;99.90
32965;DHT22;19317;48.226;11.686;2023-05-03T09:36:54;10.30;99.90
32965;DHT22;19317;48.226;11.686;2023-05-03T09:41:44;10.50;99.90
32965;DHT22;19317;48.226;11.686;2023-05-03T09:46:35;10.60;99.90
32965;DHT22;19317;48.226;11.686;2023-05-03T09:51:27;10.60;99.90
32965;DHT22;19317;48.226;11.686;2023-05-03T09:56:18;10.90;99.90
32965;DHT22;19317;48.226;11.686;2023-05-03T10:01:09;11.10;99.90
32965;DHT22;19317;48.226;11.686;2023-05-03T10:06:02;11.00;99.90
32965;DHT22;19317;48.226;11.686;2023-05-03T10:10:54;10.90;99.90
32965;DHT22;19317;48.226;11.686;2023-05-03T10:15:45;11.10;99.90
32965;DHT22;19317;48.226;11.686;2023-05-03T10:20:40;11.20;99.90
32965;DHT22;19317;48.226;11.686;2023-05-03T10:25:34;11.40;99.90
32965;DHT22;19317;48.226;11.686;2023-05-03T10:35:16;11.70;99.90
32965;DHT22;19317;48.226;11.686;2023-05-03T10:45:00;11.50;99.90
32965;DHT22;19317;48.226;11.686;2023-05-03T10:55:11;12.40;99.90
32965;DHT22;19317;48.226;11.686;2023-05-03T11:00:04;12.40;99.90
32965;DHT22;19317;48.226;11.686;2023-05-03T11:05:01;12.40;99.90
32965;DHT22;19317;48.226;11.686;2023-05-03T11:09:54;12.80;99.90
32965;DHT22;19317;48.226;11.686;2023-05-03T11:14:45;12.80;99.90
32965;DHT22;19317;48.226;11.686;2023-05-03T11:19:35;13.10;99.90
32965;DHT22;19317;48.226;11.686;2023-05-03T11:24:26;12.60;99.90
32965;DHT22;19317;48.226;11.686;2023-05-03T11:29:17;12.70;99.90
32965;DHT22;19317;48.226;11.686;2023-05-03T11:34:09;13.60;99.90
32965;DHT22;19317;48.226;11.686;2023-05-03T11:38:59;13.80;99.90
32965;DHT22;19317;48.226;11.686;2023-05-03T11:43:50;14.00;99.90
32965;DHT22;19317;48.226;11.686;2023-05-03T11:48:43;14.40;99.90
32965;DHT22;19317;48.226;11.686;2023-05-03T11:53:36;14.00;99.90
32965;DHT22;19317;48.226;11.686;2023-05-03T11:58:27;14.10;99.90
32965;DHT22;19317;48.226;11.686;2023-05-03T12:08:11;14.80;99.90
32965;DHT22;19317;48.226;11.686;2023-05-03T12:13:02;14.70;99.90
32965;DHT22;19317;48.226;11.686;2023-05-03T12:17:55;14.90;99.90
32965;DHT22;19317;48.226;11.686;2023-05-03T12:22:53;14.50;99.90
32965;DHT22;19317;48.226;11.686;2023-05-03T12:27:44;15.20;99.90
32965;DHT22;19317;48.226;11.686;2023-05-03T12:32:35;15.70;99.90
32965;DHT22;19317;48.226;11.686;2023-05-03T12:37:26;15.10;99.90
32965;DHT22;19317;48.226;11.686;2023-05-03T12:42:16;16.00;99.90
32965;DHT22;19317;48.226;11.686;2023-05-03T12:47:07;16.20;99.90
32965;DHT22;19317;48.226;11.686;2023-05-03T12:51:57;16.30;99.90
32965;DHT22;19317;48.226;11.686;2023-05-03T12:56:47;16.20;99.90
32965;DHT22;19317;48.226;11.686;2023-05-03T13:01:38;16.00;99.90
32965;DHT22;19317;48.226;11.686;2023-05-03T13:06:28;16.10;99.90
32965;DHT22;19317;48.226;11.686;2023-05-03T13:11:19;15.80;99.90
32965;DHT22;19317;48.226;11.686;2023-05-03T13:16:09;15.70;99.90
32965;DHT22;19317;48.226;11.686;2023-05-03T13:21:00;16.00;99.90
32965;DHT22;19317;48.226;11.686;2023-05-03T13:25:50;16.30;99.90
32965;DHT22;19317;48.226;11.686;2023-05-03T13:30:41;16.60;99.90
32965;DHT22;19317;48.226;11.686;2023-05-03T13:35:31;17.10;99.90
32965;DHT22;19317;48.226;11.686;2023-05-03T13:40:22;17.10;99.90
32965;DHT22;19317;48.226;11.686;2023-05-03T13:45:12;17.10;99.90
32965;DHT22;19317;48.226;11.686;2023-05-03T13:50:03;17.20;99.90
32965;DHT22;19317;48.226;11.686;2023-05-03T13:54:53;17.40;99.90
32965;DHT22;19317;48.226;11.686;2023-05-03T13:59:44;17.70;99.90
32965;DHT22;19317;48.226;11.686;2023-05-03T14:04:34;18.10;99.90
32965;DHT22;19317;48.226;11.686;2023-05-03T14:09:24;17.80;99.90
32965;DHT22;19317;48.226;11.686;2023-05-03T14:14:15;18.00;99.90
32965;DHT22;19317;48.226;11.686;2023-05-03T14:19:05;18.40;99.90
32965;DHT22;19317;48.226;11.686;2023-05-03T14:23:56;18.70;99.90
32965;DHT22;19317;48.226;11.686;2023-05-03T14:28:46;18.50;99.90
32965;DHT22;19317;48.226;11.686;2023-05-03T14:33:37;19.10;99.90
32965;DHT22;19317;48.226;11.686;2023-05-03T14:38:27;19.10;99.90
32965;DHT22;19317;48.226;11.686;2023-05-03T14:43:19;18.80;99.90
32965;DHT22;19317;48.226;11.686;2023-05-03T14:48:10;18.30;99.90
32965;DHT22;19317;48.226;11.686;2023-05-03T14:53:00;18.00;99.90
32965;DHT22;19317;48.226;11.686;2023-05-03T14:57:50;17.30;99.90
32965;DHT22;19317;48.226;11.686;2023-05-03T15:02:41;17.30;99.90
32965;DHT22;19317;48.226;11.686;2023-05-03T15:07:32;17.40;99.90
32965;DHT22;19317;48.226;11.686;2023-05-03T15:12:23;17.00;99.90
32965;DHT22;19317;48.226;11.686;2023-05-03T15:17:13;16.90;99.90
32965;DHT22;19317;48.226;11.686;2023-05-03T15:22:04;16.70;99.90
32965;DHT22;19317;48.226;11.686;2023-05-03T15:26:54;16.80;99.90
32965;DHT22;19317;48.226;11.686;2023-05-03T15:31:45;16.70;99.90
32965;DHT22;19317;48.226;11.686;2023-05-03T15:36:35;16.70;99.90
32965;DHT22;19317;48.226;11.686;2023-05-03T15:41:26;16.70;99.90
32965;DHT22;19317;48.226;11.686;2023-05-03T15:46:16;16.80;99.90
32965;DHT22;19317;48.226;11.686;2023-05-03T15:51:07;17.10;99.90
32965;DHT22;19317;48.226;11.686;2023-05-03T15:55:57;17.40;99.90
32965;DHT22;19317;48.226;11.686;2023-05-03T16:00:48;17.80;99.90
32965;DHT22;19317;48.226;11.686;2023-05-03T16:05:38;18.10;99.90
32965;DHT22;19317;48.226;11.686;2023-05-03T16:10:29;17.90;99.90
32965;DHT22;19317;48.226;11.686;2023-05-03T16:15:19;18.30;99.90
32965;DHT22;19317;48.226;11.686;2023-05-03T16:20:10;18.50;99.90
32965;DHT22;19317;48.226;11.686;2023-05-03T16:25:01;19.00;99.90
32965;DHT22;19317;48.226;11.686;2023-05-03T16:29:51;18.40;99.90
32965;DHT22;19317;48.226;11.686;2023-05-03T16:34:42;18.30;99.90
32965;DHT22;19317;48.226;11.686;2023-05-03T16:39:32;18.50;99.90
32965;DHT22;19317;48.226;11.686;2023-05-03T16:44:23;18.50;99.90
32965;DHT22;19317;48.226;11.686;2023-05-03T16:49:13;18.30;99.90
32965;DHT22;19317;48.226;11.686;2023-05-03T16:54:03;18.40;99.90
32965;DHT22;19317;48.226;11.686;2023-05-03T16:58:54;18.30;99.90
32965;DHT22;19317;48.226;11.686;2023-05-03T17:03:44;18.00;99.90
32965;DHT22;19317;48.226;11.686;2023-05-03T17:08:35;17.50;99.90
32965;DHT22;19317;48.226;11.686;2023-05-03T17:13:25;17.40;99.90
32965;DHT22;19317;48.226;11.686;2023-05-03T17:18:16;17.70;99.90
32965;DHT22;19317;48.226;11.686;2023-05-03T17:23:06;17.50;99.90
32965;DHT22;19317;48.226;11.686;2023-05-03T17:27:57;17.40;99.90
32965;DHT22;19317;48.226;11.686;2023-05-03T17:32:47;17.40;99.90
32965;DHT22;19317;48.226;11.686;2023-05-03T17:37:38;17.40;99.90
32965;DHT22;19317;48.226;11.686;2023-05-03T17:42:28;17.40;99.90
32965;DHT22;19317;48.226;11.686;2023-05-03T17:47:19;17.30;99.90
32965;DHT22;19317;48.226;11.686;2023-05-03T17:52:09;17.10;99.90
32965;DHT22;19317;48.226;11.686;2023-05-03T17:57:00;16.90;99.90
32965;DHT22;19317;48.226;11.686;2023-05-03T18:01:50;16.70;99.90
32965;DHT22;19317;48.226;11.686;2023-05-03T18:06:41;16.70;99.90
32965;DHT22;19317;48.226;11.686;2023-05-03T18:11:31;16.70;99.90
32965;DHT22;19317;48.226;11.686;2023-05-03T18:16:22;16.80;99.90
32965;DHT22;19317;48.226;11.686;2023-05-03T18:21:12;16.50;99.90
32965;DHT22;19317;48.226;11.686;2023-05-03T18:26:03;16.10;99.90
32965;DHT22;19317;48.226;11.686;2023-05-03T18:30:53;15.90;99.90
32965;DHT22;19317;48.226;11.686;2023-05-03T18:35:53;15.70;99.90
32965;DHT22;19317;48.226;11.686;2023-05-03T18:40:47;15.20;99.90
32965;DHT22;19317;48.226;11.686;2023-05-03T18:45:38;15.10;99.90
32965;DHT22;19317;48.226;11.686;2023-05-03T18:50:28;15.10;99.90
32965;DHT22;19317;48.226;11.686;2023-05-03T18:55:19;14.90;99.90
32965;DHT22;19317;48.226;11.686;2023-05-03T19:00:10;14.50;99.90
32965;DHT22;19317;48.226;11.686;2023-05-03T19:05:01;14.50;99.90
32965;DHT22;19317;48.226;11.686;2023-05-03T19:09:55;14.60;99.90
32965;DHT22;19317;48.226;11.686;2023-05-03T19:14:46;14.70;99.90
32965;DHT22;19317;48.226;11.686;2023-05-03T19:19:36;15.00;99.90
32965;DHT22;19317;48.226;11.686;2023-05-03T19:24:27;15.00;99.90
32965;DHT22;19317;48.226;11.686;2023-05-03T19:29:18;14.90;99.90
32965;DHT22;19317;48.226;11.686;2023-05-03T19:34:08;14.70;99.90
32965;DHT22;19317;48.226;11.686;2023-05-03T19:38:59;14.30;99.90
32965;DHT22;19317;48.226;11.686;2023-05-03T19:43:52;14.60;99.90
32965;DHT22;19317;48.226;11.686;2023-05-03T19:48:43;14.50;99.90
32965;DHT22;19317;48.226;11.686;2023-05-03T19:53:34;13.90;99.90
32965;DHT22;19317;48.226;11.686;2023-05-03T19:58:25;14.00;99.90
32965;DHT22;19317;48.226;11.686;2023-05-03T20:03:16;14.10;99.90
32965;DHT22;19317;48.226;11.686;2023-05-03T20:08:06;14.10;99.90
32965;DHT22;19317;48.226;11.686;2023-05-03T20:12:56;14.10;99.90
32965;DHT22;19317;48.226;11.686;2023-05-03T20:17:47;13.90;99.90
32965;DHT22;19317;48.226;11.686;2023-05-03T20:22:37;13.40;99.90
32965;DHT22;19317;48.226;11.686;2023-05-03T20:27:28;13.40;99.90
32965;DHT22;19317;48.226;11.686;2023-05-03T20:32:18;13.20;99.90
32965;DHT22;19317;48.226;11.686;2023-05-03T20:37:09;13.20;99.90
32965;DHT22;19317;48.226;11.686;2023-05-03T20:41:59;13.10;99.90
32965;DHT22;19317;48.226;11.686;2023-05-03T20:46:50;12.90;99.90
32965;DHT22;19317;48.226;11.686;2023-05-03T20:51:40;13.20;99.90
32965;DHT22;19317;48.226;11.686;2023-05-03T20:56:31;12.90;99.90
32965;DHT22;19317;48.226;11.686;2023-05-03T21:01:22;12.90;99.90
32965;DHT22;19317;48.226;11.686;2023-05-03T21:06:12;12.90;99.90
32965;DHT22;19317;48.226;11.686;2023-05-03T21:11:03;13.20;99.90
32965;DHT22;19317;48.226;11.686;2023-05-03T21:15:53;13.50;99.90
32965;DHT22;19317;48.226;11.686;2023-05-03T21:20:44;13.20;99.90
32965;DHT22;19317;48.226;11.686;2023-05-03T21:25:34;13.10;99.90
32965;DHT22;19317;48.226;11.686;2023-05-03T21:30:26;13.10;99.90
32965;DHT22;19317;48.226;11.686;2023-05-03T21:35:17;12.90;99.90
32965;DHT22;19317;48.226;11.686;2023-05-03T21:40:07;12.70;99.90
32965;DHT22;19317;48.226;11.686;2023-05-03T21:44:58;12.70;99.90
32965;DHT22;19317;48.226;11.686;2023-05-03T21:49:48;12.90;99.90
32965;DHT22;19317;48.226;11.686;2023-05-03T21:54:39;12.80;99.90
32965;DHT22;19317;48.226;11.686;2023-05-03T21:59:29;12.50;99.90
32965;DHT22;19317;48.226;11.686;2023-05-03T22:04:20;12.50;99.90
32965;DHT22;19317;48.226;11.686;2023-05-03T22:09:10;12.40;99.90
32965;DHT22;19317;48.226;11.686;2023-05-03T22:14:01;12.50;99.90
32965;DHT22;19317;48.226;11.686;2023-05-03T22:18:51;12.60;99.90
32965;DHT22;19317;48.226;11.686;2023-05-03T22:23:41;12.50;99.90
32965;DHT22;19317;48.226;11.686;2023-05-03T22:28:32;12.40;99.90
32965;DHT22;19317;48.226;11.686;2023-05-03T22:33:22;12.40;99.90
32965;DHT22;19317;48.226;11.686;2023-05-03T22:38:13;12.30;99.90
32965;DHT22;19317;48.226;11.686;2023-05-03T22:43:03;12.30;99.90
32965;DHT22;19317;48.226;11.686;2023-05-03T22:47:54;12.30;99.90
32965;DHT22;19317;48.226;11.686;2023-05-03T22:52:44;12.10;99.90
32965;DHT22;19317;48.226;11.686;2023-05-03T22:57:35;12.10;99.90
32965;DHT22;19317;48.226;11.686;2023-05-03T23:02:25;12.00;99.90
32965;DHT22;19317;48.226;11.686;2023-05-03T23:07:16;12.00;99.90
32965;DHT22;19317;48.226;11.686;2023-05-03T23:12:06;12.00;99.90
32965;DHT22;19317;48.226;11.686;2023-05-03T23:16:57;12.00;99.90
32965;DHT22;19317;48.226;11.686;2023-05-03T23:21:47;11.80;99.90
32965;DHT22;19317;48.226;11.686;2023-05-03T23:26:38;11.80;99.90
32965;DHT22;19317;48.226;11.686;2023-05-03T23:31:28;11.60;99.90
32965;DHT22;19317;48.226;11.686;2023-05-03T23:36:18;11.30;99.90
32965;DHT22;19317;48.226;11.686;2023-05-03T23:41:09;11.40;99.90
32965;DHT22;19317;48.226;11.686;2023-05-03T23:45:59;11.50;99.90
32965;DHT22;19317;48.226;11.686;2023-05-03T23:50:50;11.40;99.90
32965;DHT22;19317;48.226;11.686;2023-05-03T23:55:40;11.30;99.90
